createdAt,value
2022-11-05T00:00:16.791Z,13.67
2022-11-05T00:03:02.126Z,16.57
2022-11-05T00:05:47.231Z,15.43
2022-11-05T00:08:33.473Z,14.80
2022-11-05T00:11:02.731Z,13.40
2022-11-05T00:13:50.156Z,13.30
2022-11-05T00:16:36.077Z,13.67
2022-11-05T00:19:10.700Z,11.93
2022-11-05T00:21:58.048Z,15.73
2022-11-05T00:24:44.065Z,13.37
2022-11-05T00:27:13.033Z,12.97
2022-11-05T00:29:43.187Z,13.07
2022-11-05T00:32:13.134Z,14.60
2022-11-05T00:34:41.622Z,14.87
2022-11-05T00:37:10.151Z,13.13
2022-11-05T00:39:38.601Z,17.10
2022-11-05T00:42:24.038Z,13.27
2022-11-05T00:45:03.020Z,11.97
2022-11-05T00:47:48.623Z,13.80
2022-11-05T00:50:18.190Z,14.23
2022-11-05T00:53:05.945Z,12.77
2022-11-05T00:55:38.310Z,12.40
2022-11-05T00:58:08.873Z,13.53
2022-11-05T01:00:40.842Z,15.47
2022-11-05T01:03:11.320Z,14.10
2022-11-05T01:05:42.181Z,13.70
2022-11-05T01:08:11.035Z,11.70
2022-11-05T01:10:42.341Z,15.17
2022-11-05T01:13:18.651Z,16.30
2022-11-05T01:15:51.119Z,13.43
2022-11-05T01:18:22.075Z,14.97
2022-11-05T01:20:52.618Z,13.07
2022-11-05T01:23:21.296Z,15.07
2022-11-05T01:25:51.760Z,14.50
2022-11-05T01:28:20.705Z,14.30
2022-11-05T01:30:57.208Z,14.63
2022-11-05T01:33:25.829Z,14.90
2022-11-05T01:35:54.405Z,14.07
2022-11-05T01:38:24.022Z,14.70
2022-11-05T01:40:53.353Z,13.80
2022-11-05T01:43:32.010Z,12.87
2022-11-05T01:46:02.553Z,15.67
2022-11-05T01:48:34.184Z,16.83
2022-11-05T01:51:05.943Z,15.27
2022-11-05T01:53:38.278Z,13.47
2022-11-05T01:56:12.510Z,15.10
2022-11-05T01:58:44.589Z,15.60
2022-11-05T02:01:14.808Z,14.13
2022-11-05T02:03:44.645Z,15.80
2022-11-05T02:06:15.037Z,16.00
2022-11-05T02:08:55.478Z,17.90
2022-11-05T02:11:23.849Z,13.07
2022-11-05T02:13:52.711Z,15.87
2022-11-05T02:16:35.006Z,13.90
2022-11-05T02:19:16.601Z,13.80
2022-11-05T02:22:21.185Z,18.50
2022-11-05T02:25:13.561Z,14.70
2022-11-05T02:28:05.846Z,16.93
2022-11-05T02:30:47.529Z,18.07
2022-11-05T02:33:37.758Z,16.37
2022-11-05T02:36:22.574Z,16.97
2022-11-05T02:38:59.840Z,16.90
2022-11-05T02:41:37.293Z,13.77
2022-11-05T02:44:16.671Z,14.33
2022-11-05T02:46:58.020Z,15.17
2022-11-05T02:49:37.589Z,14.53
2022-11-05T02:52:11.195Z,16.43
2022-11-05T02:54:45.872Z,15.80
2022-11-05T02:57:14.607Z,14.60
2022-11-05T02:59:44.734Z,15.17
2022-11-05T03:02:15.239Z,17.03
2022-11-05T03:04:43.793Z,15.10
2022-11-05T03:07:36.687Z,23.07
2022-11-05T03:10:33.616Z,15.70
2022-11-05T03:13:15.668Z,16.57
2022-11-05T03:15:55.293Z,16.63
2022-11-05T03:18:32.147Z,18.57
2022-11-05T03:21:06.222Z,15.60
2022-11-05T03:23:41.490Z,17.13
2022-11-05T03:26:19.257Z,15.10
2022-11-05T03:28:52.309Z,18.47
2022-11-05T03:31:22.074Z,16.10
2022-11-05T03:33:53.573Z,19.93
2022-11-05T03:36:27.077Z,20.03
2022-11-05T03:38:59.186Z,17.70
2022-11-05T03:41:29.606Z,18.57
2022-11-05T03:44:02.166Z,17.87
2022-11-05T03:46:36.146Z,19.87
2022-11-05T03:49:08.649Z,19.80
2022-11-05T03:51:44.239Z,17.67
2022-11-05T03:54:12.958Z,21.23
2022-11-05T03:56:47.970Z,20.93
2022-11-05T03:59:16.996Z,19.63
2022-11-05T04:01:47.441Z,14.63
2022-11-05T04:04:17.792Z,18.10
2022-11-05T04:07:03.039Z,20.33
2022-11-05T04:09:48.398Z,23.83
2022-11-05T04:12:34.183Z,18.97
2022-11-05T04:15:02.420Z,16.30
2022-11-05T04:17:29.708Z,19.13
2022-11-05T04:20:18.578Z,18.37
2022-11-05T04:23:03.854Z,16.60
2022-11-05T04:25:32.021Z,17.33
2022-11-05T04:28:01.661Z,21.90
2022-11-05T04:30:29.087Z,18.87
2022-11-05T04:33:02.815Z,17.30
2022-11-05T04:35:34.564Z,16.10
2022-11-05T04:38:04.401Z,14.87
2022-11-05T04:40:33.080Z,22.20
2022-11-05T04:43:04.344Z,151.77
2022-11-05T04:45:34.938Z,48.87
2022-11-05T04:48:04.059Z,87.03
2022-11-05T04:50:35.006Z,66.97
2022-11-05T04:53:04.192Z,67.97
2022-11-05T04:55:32.495Z,44.37
2022-11-05T04:58:02.194Z,108.20
2022-11-05T05:00:30.914Z,38.30
2022-11-05T05:02:59.863Z,67.27
2022-11-05T05:05:30.657Z,14.97
2022-11-05T05:08:05.367Z,22.07
2022-11-05T05:10:35.535Z,28.63
2022-11-05T05:13:03.684Z,23.97
2022-11-05T05:15:33.099Z,17.80
2022-11-05T05:18:01.584Z,16.20
2022-11-05T05:20:47.249Z,13.87
2022-11-05T05:23:19.503Z,15.07
2022-11-05T05:25:47.982Z,22.10
2022-11-05T05:28:16.622Z,16.40
2022-11-05T05:30:45.064Z,17.97
2022-11-05T05:33:15.151Z,19.27
2022-11-05T05:35:43.582Z,23.37
2022-11-05T05:38:12.121Z,20.47
2022-11-05T05:40:42.063Z,19.87
2022-11-05T05:43:10.666Z,22.00
2022-11-05T05:45:39.462Z,19.73
2022-11-05T05:48:08.002Z,19.67
2022-11-05T05:50:36.340Z,18.63
2022-11-05T05:53:04.669Z,20.40
2022-11-05T05:55:33.041Z,17.23
2022-11-05T05:58:03.167Z,18.97
2022-11-05T06:00:32.535Z,20.60
2022-11-05T06:03:00.646Z,21.83
2022-11-05T06:05:29.137Z,25.07
2022-11-05T06:07:58.237Z,23.40
2022-11-05T06:10:27.260Z,24.37
2022-11-05T06:12:55.847Z,19.93
2022-11-05T06:15:25.860Z,20.80
2022-11-05T06:17:55.808Z,20.93
2022-11-05T06:20:24.275Z,21.50
2022-11-05T06:22:56.612Z,27.03
2022-11-05T06:25:25.237Z,26.03
2022-11-05T06:27:54.624Z,22.10
2022-11-05T06:30:24.967Z,23.40
2022-11-05T06:32:53.148Z,23.03
2022-11-05T06:35:21.247Z,26.77
2022-11-05T06:37:49.709Z,26.97
2022-11-05T06:40:18.275Z,25.50
2022-11-05T06:42:46.779Z,24.00
2022-11-05T06:45:15.339Z,25.73
2022-11-05T06:47:45.575Z,24.03
2022-11-05T06:50:14.074Z,20.20
2022-11-05T06:52:42.817Z,26.10
2022-11-05T06:55:13.761Z,24.33
2022-11-05T06:57:42.561Z,23.90
2022-11-05T07:00:13.377Z,22.97
2022-11-05T07:02:44.661Z,22.00
2022-11-05T07:05:13.337Z,22.30
2022-11-05T07:07:42.910Z,24.33
2022-11-05T07:10:14.231Z,25.17
2022-11-05T07:12:42.389Z,27.33
2022-11-05T07:15:12.354Z,25.77
2022-11-05T07:17:40.578Z,21.53
2022-11-05T07:20:12.522Z,25.20
2022-11-05T07:22:40.630Z,27.07
2022-11-05T07:25:09.974Z,26.20
2022-11-05T07:27:41.534Z,27.03
2022-11-05T07:30:12.089Z,27.67
2022-11-05T07:32:41.169Z,26.67
2022-11-05T07:35:14.746Z,25.47
2022-11-05T07:37:45.061Z,27.47
2022-11-05T07:40:14.692Z,29.93
2022-11-05T07:42:44.319Z,23.90
2022-11-05T07:45:12.573Z,27.20
2022-11-05T07:47:46.724Z,25.53
2022-11-05T07:50:17.977Z,25.83
2022-11-05T07:52:46.346Z,28.07
2022-11-05T07:55:15.739Z,29.67
2022-11-05T07:57:45.188Z,29.33
2022-11-05T08:00:16.967Z,24.10
2022-11-05T08:02:45.752Z,24.80
2022-11-05T08:05:15.770Z,28.10
2022-11-05T08:07:44.123Z,27.53
2022-11-05T08:10:12.518Z,26.43
2022-11-05T08:12:41.009Z,22.77
2022-11-05T08:15:10.909Z,25.37
2022-11-05T08:17:39.630Z,25.27
2022-11-05T08:20:09.443Z,23.80
2022-11-05T08:22:40.738Z,21.63
2022-11-05T08:25:09.760Z,24.57
2022-11-05T08:27:38.246Z,21.63
2022-11-05T08:30:09.497Z,24.83
2022-11-05T08:32:37.675Z,26.20
2022-11-05T08:35:07.166Z,23.77
2022-11-05T08:37:36.408Z,20.70
2022-11-05T08:40:08.842Z,24.00
2022-11-05T08:42:38.402Z,22.03
2022-11-05T08:45:07.804Z,25.13
2022-11-05T08:47:36.035Z,18.20
2022-11-05T08:50:04.582Z,21.13
2022-11-05T08:52:33.049Z,24.27
2022-11-05T08:55:01.742Z,34.37
2022-11-05T08:57:31.421Z,52.27
2022-11-05T09:00:00.205Z,51.00
2022-11-05T09:02:28.798Z,22.73
2022-11-05T09:04:57.226Z,33.83
2022-11-05T09:07:25.523Z,21.93
2022-11-05T09:09:55.290Z,22.00
2022-11-05T09:12:23.749Z,20.97
2022-11-05T09:14:53.815Z,17.67
2022-11-05T09:17:23.726Z,17.63
2022-11-05T09:19:52.475Z,20.77
2022-11-05T09:22:20.921Z,23.13
2022-11-05T09:24:49.431Z,21.27
2022-11-05T09:27:18.657Z,17.30
2022-11-05T09:29:46.918Z,17.33
2022-11-05T09:32:19.352Z,20.97
2022-11-05T09:34:50.316Z,20.03
2022-11-05T09:37:18.765Z,18.53
2022-11-05T09:39:47.949Z,14.63
2022-11-05T09:42:25.234Z,15.73
2022-11-05T09:44:59.890Z,14.83
2022-11-05T09:47:39.296Z,15.57
2022-11-05T09:50:14.054Z,17.07
2022-11-05T09:52:51.595Z,14.37
2022-11-05T09:55:25.073Z,14.97
2022-11-05T09:57:58.445Z,19.00
2022-11-05T10:00:27.717Z,13.83
2022-11-05T10:03:00.119Z,14.10
2022-11-05T10:05:30.288Z,16.10
2022-11-05T10:08:03.029Z,21.00
2022-11-05T10:10:41.140Z,16.60
2022-11-05T10:13:18.002Z,16.13
2022-11-05T10:15:57.393Z,14.57
2022-11-05T10:18:33.330Z,14.97
2022-11-05T10:21:02.311Z,14.97
2022-11-05T10:23:31.351Z,15.17
2022-11-05T10:26:04.725Z,13.40
2022-11-05T10:28:35.490Z,11.30
2022-11-05T10:31:07.868Z,15.17
2022-11-05T10:33:47.681Z,11.07
2022-11-05T10:36:22.314Z,10.77
2022-11-05T10:38:51.926Z,15.13
2022-11-05T10:41:35.256Z,17.33
2022-11-05T10:44:18.662Z,10.60
2022-11-05T10:47:04.366Z,11.60
2022-11-05T10:49:47.436Z,10.97
2022-11-05T10:52:25.440Z,11.03
2022-11-05T10:54:56.735Z,14.27
2022-11-05T10:57:35.072Z,11.77
2022-11-05T11:00:26.475Z,13.40
2022-11-05T11:02:57.040Z,9.90
2022-11-05T11:05:32.170Z,11.37
2022-11-05T11:08:08.072Z,11.57
2022-11-05T11:10:43.825Z,12.83
2022-11-05T11:13:22.454Z,13.07
2022-11-05T11:15:52.130Z,12.10
2022-11-05T11:18:34.656Z,10.87
2022-11-05T11:21:15.541Z,12.00
2022-11-05T11:23:54.408Z,9.03
2022-11-05T11:26:25.333Z,15.27
2022-11-05T11:28:58.323Z,16.07
2022-11-05T11:31:28.885Z,8.00
2022-11-05T11:34:02.033Z,10.27
2022-11-05T11:36:41.735Z,9.97
2022-11-05T11:39:19.826Z,12.73
2022-11-05T11:41:53.176Z,11.10
2022-11-05T11:44:27.342Z,15.80
2022-11-05T11:47:06.629Z,9.50
2022-11-05T11:49:46.542Z,7.73
2022-11-05T11:52:20.659Z,7.17
2022-11-05T11:54:49.345Z,9.93
2022-11-05T11:57:26.541Z,10.30
2022-11-05T12:00:08.413Z,6.17
2022-11-05T12:03:10.595Z,9.50
2022-11-05T12:05:47.270Z,7.67
2022-11-05T12:08:46.147Z,6.53
2022-11-05T12:11:28.134Z,7.67
2022-11-05T12:14:02.357Z,5.90
2022-11-05T12:16:51.329Z,10.63
2022-11-05T12:19:34.492Z,7.67
2022-11-05T12:22:10.154Z,6.93
2022-11-05T12:25:05.342Z,6.23
2022-11-05T12:27:49.995Z,6.53
2022-11-05T12:30:20.239Z,8.30
2022-11-05T12:33:18.263Z,8.20
2022-11-05T12:36:07.358Z,8.50
2022-11-05T12:38:59.368Z,6.93
2022-11-05T12:41:34.745Z,7.60
2022-11-05T12:44:33.042Z,8.97
2022-11-05T12:47:13.101Z,5.33
2022-11-05T12:50:01.243Z,9.10
2022-11-05T12:52:50.394Z,10.27
2022-11-05T12:55:21.736Z,8.20
2022-11-05T12:57:55.139Z,5.17
2022-11-05T13:00:25.442Z,5.37
2022-11-05T13:03:03.501Z,5.07
2022-11-05T13:05:37.834Z,4.57
2022-11-05T13:08:10.419Z,4.07
2022-11-05T13:10:42.661Z,5.60
2022-11-05T13:13:20.564Z,7.60
2022-11-05T13:15:53.363Z,5.63
2022-11-05T13:18:27.842Z,5.30
2022-11-05T13:20:59.590Z,7.50
2022-11-05T13:23:34.030Z,5.50
2022-11-05T13:26:18.525Z,6.60
2022-11-05T13:28:55.695Z,6.27
2022-11-05T13:31:31.142Z,2.90
2022-11-05T13:34:04.187Z,6.67
2022-11-05T13:36:53.449Z,5.50
2022-11-05T13:39:26.043Z,4.63
2022-11-05T13:42:15.909Z,4.60
2022-11-05T13:45:00.298Z,5.60
2022-11-05T13:47:55.314Z,4.53
2022-11-05T13:50:52.238Z,4.73
2022-11-05T13:54:01.276Z,4.20
2022-11-05T13:56:41.779Z,7.43
2022-11-05T13:59:44.330Z,8.20
2022-11-05T14:02:18.320Z,5.17
2022-11-05T14:04:50.294Z,5.27
2022-11-05T14:07:22.631Z,4.57
2022-11-05T14:09:56.656Z,5.37
2022-11-05T14:12:29.616Z,3.90
2022-11-05T14:15:04.548Z,20.10
2022-11-05T14:17:54.433Z,24.73
2022-11-05T14:20:39.987Z,21.90
2022-11-05T14:23:39.619Z,9.43
2022-11-05T14:26:17.232Z,10.43
2022-11-05T14:28:49.025Z,20.17
2022-11-05T14:34:47.448Z,12.07
2022-11-05T14:37:37.171Z,14.70
2022-11-05T14:40:28.770Z,24.43
2022-11-05T14:42:59.974Z,19.17
2022-11-05T14:45:31.793Z,15.63
2022-11-05T14:48:03.536Z,25.03
2022-11-05T14:50:53.851Z,19.00
2022-11-05T14:53:32.009Z,16.17
2022-11-05T14:56:03.967Z,18.53
2022-11-05T14:58:38.805Z,11.07
2022-11-05T15:01:11.133Z,9.10
2022-11-05T15:04:26.654Z,13.90
2022-11-05T15:07:31.141Z,11.77
2022-11-05T15:10:10.022Z,27.67
2022-11-05T15:12:43.342Z,55.90
2022-11-05T15:15:25.385Z,16.27
2022-11-05T15:18:09.172Z,8.20
2022-11-05T15:20:41.154Z,19.07
2022-11-05T15:23:14.996Z,28.33
2022-11-05T15:25:53.103Z,5.07
2022-11-05T15:28:30.813Z,6.10
2022-11-05T15:31:02.085Z,7.20
2022-11-05T15:33:30.956Z,6.10
2022-11-05T15:36:11.342Z,8.57
2022-11-05T15:38:56.861Z,5.33
2022-11-05T15:41:34.718Z,4.63
2022-11-05T15:44:03.069Z,17.90
2022-11-05T15:46:31.529Z,5.20
2022-11-05T15:49:09.299Z,6.67
2022-11-05T15:51:38.296Z,4.90
2022-11-05T15:54:36.250Z,3.53
2022-11-05T15:57:05.508Z,4.53
2022-11-05T15:59:35.508Z,7.30
2022-11-05T16:02:21.274Z,4.77
2022-11-05T16:04:50.841Z,5.87
2022-11-05T16:07:20.029Z,8.27
2022-11-05T16:09:56.422Z,4.63
2022-11-05T16:12:35.319Z,7.47
2022-11-05T16:15:20.445Z,7.10
2022-11-05T16:17:52.807Z,6.27
2022-11-05T16:20:24.429Z,4.37
2022-11-05T16:22:56.081Z,5.50
2022-11-05T16:25:38.444Z,6.70
2022-11-05T16:28:19.750Z,7.73
2022-11-05T16:30:59.740Z,7.60
2022-11-05T16:33:33.454Z,6.70
2022-11-05T16:36:02.296Z,5.43
2022-11-05T16:38:30.417Z,7.53
2022-11-05T16:41:00.612Z,8.00
2022-11-05T16:43:29.318Z,12.07
2022-11-05T16:46:00.364Z,6.70
2022-11-05T16:48:28.902Z,6.80
2022-11-05T16:50:57.405Z,4.53
2022-11-05T16:53:25.586Z,5.13
2022-11-05T16:55:54.059Z,6.77
2022-11-05T16:58:26.849Z,5.47
2022-11-05T17:01:05.119Z,7.70
2022-11-05T17:03:33.627Z,12.43
2022-11-05T17:06:02.819Z,6.47
2022-11-05T17:08:30.984Z,7.00
2022-11-05T17:10:59.324Z,7.20
2022-11-05T17:13:29.085Z,6.73
2022-11-05T17:15:58.383Z,8.20
2022-11-05T17:18:26.635Z,8.30
2022-11-05T17:20:56.179Z,6.43
2022-11-05T17:23:28.982Z,7.97
2022-11-05T17:26:02.472Z,8.30
2022-11-05T17:28:33.125Z,8.23
2022-11-05T17:31:02.880Z,6.80
2022-11-05T17:33:31.784Z,6.77
2022-11-05T17:36:00.128Z,14.63
2022-11-05T17:38:28.748Z,14.23
2022-11-05T17:40:57.283Z,8.40
2022-11-05T17:43:25.695Z,8.50
2022-11-05T17:46:00.009Z,8.00
2022-11-05T17:48:31.261Z,12.30
2022-11-05T17:50:59.876Z,7.20
2022-11-05T17:53:28.328Z,8.10
2022-11-05T17:55:56.611Z,10.10
2022-11-05T17:58:25.354Z,7.00
2022-11-05T18:00:55.360Z,8.03
2022-11-05T18:03:24.106Z,7.10
2022-11-05T18:05:53.769Z,5.13
2022-11-05T18:08:21.874Z,6.63
2022-11-05T18:10:49.968Z,6.13
2022-11-05T18:13:18.094Z,6.60
2022-11-05T18:15:46.758Z,6.50
2022-11-05T18:18:17.721Z,5.43
2022-11-05T18:20:46.384Z,9.57
2022-11-05T18:23:15.083Z,3.83
2022-11-05T18:25:44.479Z,9.07
2022-11-05T18:28:13.527Z,27.03
2022-11-05T18:30:42.457Z,10.87
2022-11-05T18:33:11.915Z,6.10
2022-11-05T18:35:45.615Z,5.23
2022-11-05T18:38:14.082Z,3.83
2022-11-05T18:40:42.652Z,7.57
2022-11-05T18:43:11.355Z,7.77
2022-11-05T18:45:41.198Z,10.10
2022-11-05T18:48:09.536Z,7.43
2022-11-05T18:50:41.165Z,10.40
2022-11-05T18:53:10.818Z,11.03
2022-11-05T18:55:40.339Z,7.63
2022-11-05T18:58:08.427Z,6.37
2022-11-05T19:00:37.136Z,6.93
2022-11-05T19:03:05.390Z,10.13
2022-11-05T19:05:34.148Z,6.13
2022-11-05T19:08:02.318Z,5.83
2022-11-05T19:10:33.271Z,4.93
2022-11-05T19:13:01.658Z,24.07
2022-11-05T19:15:30.642Z,22.80
2022-11-05T19:17:58.731Z,29.60
2022-11-05T19:20:27.727Z,19.97
2022-11-05T19:22:56.510Z,23.20
2022-11-05T19:25:24.864Z,16.33
2022-11-05T19:27:58.133Z,40.43
2022-11-05T19:30:28.143Z,12.50
2022-11-05T19:32:57.452Z,23.23
2022-11-05T19:35:25.605Z,26.70
2022-11-05T19:37:53.941Z,31.33
2022-11-05T19:40:22.901Z,47.77
2022-11-05T19:42:51.285Z,27.00
2022-11-05T19:45:43.643Z,27.83
2022-11-05T19:48:16.265Z,48.57
2022-11-05T19:50:48.155Z,60.37
2022-11-05T19:53:16.643Z,59.73
2022-11-05T19:55:45.219Z,30.53
2022-11-05T19:58:14.467Z,14.30
2022-11-05T20:00:45.352Z,19.17
2022-11-05T20:03:15.212Z,73.63
2022-11-05T20:05:43.722Z,18.33
2022-11-05T20:08:11.995Z,10.97
2022-11-05T20:10:40.757Z,10.60
2022-11-05T20:13:12.247Z,12.43
2022-11-05T20:15:46.390Z,15.43
2022-11-05T20:18:16.298Z,13.80
2022-11-05T20:20:44.905Z,12.27
2022-11-05T20:23:13.916Z,13.30
2022-11-05T20:25:43.178Z,15.83
2022-11-05T20:28:13.682Z,11.63
2022-11-05T20:30:42.577Z,12.47
2022-11-05T20:33:17.312Z,11.13
2022-11-05T20:35:47.179Z,10.13
2022-11-05T20:38:15.581Z,9.90
2022-11-05T20:40:43.771Z,7.57
2022-11-05T20:43:12.916Z,11.97
2022-11-05T20:45:41.609Z,15.83
2022-11-05T20:48:09.892Z,11.17
2022-11-05T20:50:42.966Z,14.57
2022-11-05T20:53:12.976Z,16.20
2022-11-05T20:55:42.650Z,13.27
2022-11-05T20:58:11.949Z,15.77
2022-11-05T21:00:42.720Z,17.93
2022-11-05T21:03:11.732Z,18.57
2022-11-05T21:05:45.882Z,19.07
2022-11-05T21:08:15.788Z,21.20
2022-11-05T21:10:51.069Z,25.17
2022-11-05T21:13:19.683Z,25.03
2022-11-05T21:15:50.817Z,27.20
2022-11-05T21:18:20.484Z,31.43
2022-11-05T21:20:51.384Z,24.87
2022-11-05T21:23:21.435Z,28.23
2022-11-05T21:25:50.256Z,29.40
2022-11-05T21:28:20.351Z,28.83
2022-11-05T21:30:49.311Z,32.03
2022-11-05T21:33:18.918Z,29.90
2022-11-05T21:35:50.676Z,27.77
2022-11-05T21:38:21.163Z,29.93
2022-11-05T21:40:50.822Z,28.93
2022-11-05T21:43:19.937Z,29.57
2022-11-05T21:45:51.114Z,27.17
2022-11-05T21:48:19.267Z,28.73
2022-11-05T21:51:11.362Z,28.70
2022-11-05T21:53:58.153Z,29.50
2022-11-05T21:56:45.296Z,31.93
2022-11-05T21:59:32.514Z,29.87
2022-11-05T22:02:03.098Z,30.10
2022-11-05T22:04:32.347Z,32.93
2022-11-05T22:07:02.946Z,28.50
2022-11-05T22:09:31.227Z,31.20
2022-11-05T22:12:01.419Z,30.93
2022-11-05T22:14:29.754Z,30.90
2022-11-05T22:16:58.374Z,29.07
2022-11-05T22:19:27.277Z,28.33
2022-11-05T22:21:56.057Z,29.33
2022-11-05T22:24:28.156Z,31.50
2022-11-05T22:26:56.300Z,32.33
2022-11-05T22:29:24.428Z,28.13
2022-11-05T22:31:52.887Z,29.90
2022-11-05T22:34:22.287Z,32.73
2022-11-05T22:36:52.498Z,25.60
2022-11-05T22:39:21.380Z,30.37
2022-11-05T22:41:54.477Z,31.37
2022-11-05T22:44:23.141Z,26.73
2022-11-05T22:46:51.293Z,30.27
2022-11-05T22:49:19.762Z,29.30
2022-11-05T22:51:48.741Z,29.57
2022-11-05T22:54:17.963Z,29.30
2022-11-05T22:56:46.566Z,28.80
2022-11-05T22:59:17.153Z,29.77
2022-11-05T23:01:46.810Z,30.47
2022-11-05T23:04:15.686Z,26.63
2022-11-05T23:07:01.861Z,32.43
2022-11-05T23:09:52.098Z,27.97
2022-11-05T23:12:26.130Z,32.30
2022-11-05T23:14:58.448Z,27.60
2022-11-05T23:17:44.719Z,27.37
2022-11-05T23:20:33.816Z,27.37
2022-11-05T23:23:19.746Z,29.23
2022-11-05T23:25:48.377Z,31.33
2022-11-05T23:28:21.425Z,25.53
2022-11-05T23:31:08.640Z,25.53
2022-11-05T23:33:37.526Z,24.50
2022-11-05T23:36:23.373Z,24.57
2022-11-05T23:38:51.813Z,25.20
2022-11-05T23:41:38.800Z,27.13
2022-11-05T23:44:24.453Z,25.13
2022-11-05T23:47:11.366Z,24.27
2022-11-05T23:49:39.743Z,24.07
2022-11-05T23:52:08.094Z,24.77
2022-11-05T23:54:36.630Z,26.17
2022-11-05T23:57:05.253Z,23.47
2022-11-05T23:59:33.649Z,24.77
